Impacts METAR Board
IDs:

KLGA - New York/La Guardia, NY, US

Updated at: 1300 UTC 27 Feb 2021
Potential Impact None Slight Moderate High
Time 27/01Z 27/02Z 27/03Z 27/04Z 27/05Z 27/06Z 27/07Z 27/08Z 27/09Z 27/10Z 27/11Z 27/12Z 27/13Z
Temp40 40 40 41 41 41 41 41 41 39 38 37 38
Dewpt23 27 26 25 25 27 29 30 32 33 34 34 35
Altim30.45 30.46 30.46 30.45 30.44 30.43 30.41 30.38 30.35 30.32 30.29 30.25 30.23
VIS10 10 10 10 10 10 10 10 10 10 6 7 4
CIG250 190 160 140 110 65 40 46 26 18 12 7 6
CoverOVCOVCBKNOVCOVCOVCOVCOVCOVCOVCOVCOVCOVC
FltCatVFRVFRVFRVFRVFRVFRVFRVFRMVFRMVFRMVFRIFRIFR
WX-------------RA-RA-RA-RA-RA BR-RA-RA BR
WDir17017017016017014018010011050505050
WSpd11 8 8 11 9 7 10 3 5 5 7 7 7
WGst-- -- -- -- -- -- 15 -- -- -- -- -- --
Raw hourly METARs
KLGA 270051Z 17011KT 10SM OVC250 04/M05 A3045 RMK AO2 SLP311 T00441050
KLGA 270151Z 17008KT 10SM BKN190 OVC250 04/M03 A3046 RMK AO2 SLP314 T00441028
KLGA 270251Z 17008KT 10SM BKN160 BKN250 04/M03 A3046 RMK AO2 SLP314 T00441033 53001
KLGA 270351Z 16011KT 10SM OVC140 05/M04 A3045 RMK AO2 SLP310 T00501039
KLGA 270451Z 17009KT 10SM OVC110 05/M04 A3044 RMK AO2 SLP307 T00501039 400830017
KLGA 270551Z 14007KT 10SM BKN065 OVC085 05/M03 A3043 RMK AO2 SLP302 T00501028 10050 20039 58012
KLGA 270651Z 18010G15KT 10SM -RA FEW031 BKN040 OVC060 05/M02 A3041 RMK AO2 RAB33 SLP298 P0000 T00501017
KLGA 270751Z 10003KT 10SM -RA FEW029 BKN046 OVC055 05/M01 A3038 RMK AO2 RAE20B46 SLP287 P0000 T00501011
KLGA 270851Z 11005KT 10SM -RA BKN026 OVC036 05/00 A3035 RMK AO2 SLP275 P0000 60000 T00500000 58027
KLGA 270951Z 05005KT 10SM -RA BKN018 OVC022 04/01 A3032 RMK AO2 SLP268 P0002 T00390006
KLGA 271051Z 05007KT 6SM -RA BR OVC012 03/01 A3029 RMK AO2 SLP258 P0001 T00330011
KLGA 271151Z 05007KT 7SM -RA OVC007 03/01 A3025 RMK AO2 SLP243 P0003 60006 70006 T00280011 10050 20028 58033
KLGA 271251Z 05007KT 4SM -RA BR BKN006 OVC025 03/02 A3023 RMK AO2 RAE15B16 SLP235 P0002 T00330017



Page loaded:  13:27 UTC  |   05:27 AM Pacific  |   06:27 AM Mountain  |   07:27 AM Central  |   08:27 AM Eastern

 

ADVISORIES

FORECASTS

FORECASTS

OBSERVATIONS

USER TOOLS

ABOUT US